Time;durP1;ratioP1;P1;durP2;ratioP2;P2;SDS_P1;SDS_P2;PMS_P1;PMS_P2;Temp;Humidity;BMP_temperature;BMP_pressure;BME280_temperature;BME280_humidity;BME280_pressure;Samples;Min_cycle;Max_cycle;Signal;HPM_P1;HPM_P2
2023/09/26 00:00:13;;;;;;;9.10;8.45;;;;;;;12.90;85.15;98547.63;4986538;28;20290;-77
2023/09/26 00:02:41;;;;;;;9.10;8.30;;;;;;;12.87;85.30;98542.63;4987386;28;20235;-77
2023/09/26 00:05:09;;;;;;;7.97;7.43;;;;;;;12.83;85.70;98549.50;4988571;28;20498;-77
2023/09/26 00:07:37;;;;;;;8.07;7.47;;;;;;;12.82;85.51;98545.09;4985437;28;20994;-77
2023/09/26 00:10:06;;;;;;;8.43;7.85;;;;;;;12.78;85.57;98550.94;4987498;28;20777;-77
2023/09/26 00:12:34;;;;;;;9.60;8.90;;;;;;;12.64;86.08;98554.66;4987539;28;20689;-77
2023/09/26 00:15:01;;;;;;;9.38;8.60;;;;;;;12.55;86.79;98547.72;4985243;28;20357;-76
2023/09/26 00:17:28;;;;;;;10.30;9.45;;;;;;;12.62;86.81;98556.75;4985063;28;20691;-77
2023/09/26 00:19:55;;;;;;;9.50;8.70;;;;;;;12.60;87.35;98547.13;4985912;28;20203;-77
2023/09/26 00:22:22;;;;;;;11.90;11.00;;;;;;;12.43;87.19;98531.16;4988806;28;20663;-77
2023/09/26 00:24:48;;;;;;;9.83;9.10;;;;;;;12.62;86.77;98539.59;4988224;28;20313;-77
2023/09/26 00:27:17;;;;;;;11.13;10.23;;;;;;;12.59;87.33;98542.72;4987881;28;20489;-77
2023/09/26 00:29:44;;;;;;;13.60;12.52;;;;;;;12.60;87.52;98553.38;4987016;28;20466;-77
2023/09/26 00:32:11;;;;;;;12.90;11.60;;;;;;;12.56;87.24;98549.41;4984603;28;20211;-76
2023/09/26 00:34:38;;;;;;;13.40;12.30;;;;;;;12.57;87.54;98545.63;4985132;28;20286;-77
2023/09/26 00:37:05;;;;;;;11.47;10.47;;;;;;;12.62;86.85;98548.59;4986735;28;20595;-77
2023/09/26 00:39:33;;;;;;;10.90;10.05;;;;;;;12.54;87.21;98551.47;4986184;28;20516;-77
2023/09/26 00:41:59;;;;;;;11.10;10.30;;;;;;;12.48;87.53;98537.88;4988129;28;20261;-77
2023/09/26 00:44:27;;;;;;;11.32;10.27;;;;;;;12.75;86.46;98551.34;4986934;28;20559;-76
2023/09/26 00:46:55;;;;;;;10.90;9.90;;;;;;;12.64;87.05;98554.66;4988045;28;20319;-76
2023/09/26 00:49:22;;;;;;;12.10;11.20;;;;;;;12.64;87.22;98551.94;4982404;28;20214;-77
2023/09/26 00:51:49;;;;;;;13.53;12.27;;;;;;;12.77;86.32;98538.41;4986591;28;20296;-77
2023/09/26 00:54:16;;;;;;;11.25;10.35;;;;;;;12.88;85.43;98538.84;4986792;28;20601;-76
2023/09/26 00:56:43;;;;;;;13.60;12.20;;;;;;;12.73;86.43;98537.13;4987927;28;20225;-77
2023/09/26 00:59:09;;;;;;;14.33;13.23;;;;;;;12.59;87.45;98534.56;4985672;28;20202;-77
2023/09/26 01:01:38;;;;;;;14.35;13.25;;;;;;;12.62;87.32;98536.88;4982501;28;20454;-77
2023/09/26 01:04:06;;;;;;;13.93;12.82;;;;;;;12.61;87.73;98540.66;4985752;28;20366;-77
2023/09/26 01:06:34;;;;;;;13.80;12.80;;;;;;;12.71;86.88;98541.91;4986922;28;20215;-77
2023/09/26 01:09:02;;;;;;;15.32;14.02;;;;;;;12.61;87.16;98530.63;4985927;28;20473;-76
2023/09/26 01:11:30;;;;;;;15.45;14.05;;;;;;;12.51;88.12;98542.88;4986756;28;20199;-76
2023/09/26 01:13:57;;;;;;;15.95;14.55;;;;;;;12.44;88.17;98538.25;4988149;28;20199;-77
2023/09/26 01:16:23;;;;;;;16.80;15.40;;;;;;;12.36;88.91;98548.44;4987206;28;20257;-77
2023/09/26 01:18:52;;;;;;;16.70;15.20;;;;;;;12.27;89.49;98544.25;4977709;28;20462;-77
2023/09/26 01:21:19;;;;;;;16.60;15.20;;;;;;;12.30;89.22;98539.25;4986436;28;20298;-77
2023/09/26 01:23:47;;;;;;;17.17;15.70;;;;;;;12.18;89.98;98540.00;4987134;28;20286;-77
2023/09/26 01:26:15;;;;;;;16.63;15.13;;;;;;;12.29;89.10;98539.47;4987554;28;20400;-76
2023/09/26 01:28:42;;;;;;;15.18;14.07;;;;;;;12.17;89.58;98541.03;4984039;28;20288;-77
2023/09/26 01:31:09;;;;;;;15.55;14.25;;;;;;;12.38;88.43;98532.78;4987197;28;20195;-77
2023/09/26 01:33:36;;;;;;;15.95;14.57;;;;;;;12.21;89.00;98531.47;4987825;28;20345;-77
2023/09/26 01:36:03;;;;;;;16.80;15.45;;;;;;;12.21;89.90;98529.59;4984112;28;20229;-76
2023/09/26 01:38:30;;;;;;;16.85;15.32;;;;;;;12.20;89.71;98537.94;4986020;28;20209;-76
2023/09/26 01:40:57;;;;;;;17.20;15.80;;;;;;;12.15;90.30;98534.97;4990455;28;20243;-76
2023/09/26 01:43:26;;;;;;;19.00;17.40;;;;;;;11.99;90.65;98533.44;4990422;28;20290;-76
2023/09/26 01:45:55;;;;;;;22.55;19.08;;;;;;;11.84;91.93;98536.25;4987028;28;20238;-76
2023/09/26 01:48:22;;;;;;;19.23;17.73;;;;;;;11.86;91.52;98530.63;4989503;28;20762;-76
2023/09/26 01:50:48;;;;;;;19.40;17.80;;;;;;;11.87;91.47;98538.56;4984305;28;20230;-76
2023/09/26 01:53:15;;;;;;;19.63;17.98;;;;;;;11.72;92.22;98532.34;4989645;28;20209;-76
2023/09/26 01:55:42;;;;;;;19.48;17.70;;;;;;;11.75;91.57;98535.50;4990680;28;20349;-76
2023/09/26 01:58:09;;;;;;;19.25;17.60;;;;;;;11.69;91.89;98538.22;4988557;28;20199;-77
2023/09/26 02:00:37;;;;;;;18.88;17.38;;;;;;;11.61;92.27;98530.22;4990582;28;20287;-76
2023/09/26 02:03:04;;;;;;;19.08;17.27;;;;;;;11.72;91.92;98543.22;4990825;28;20552;-76
2023/09/26 02:05:31;;;;;;;19.38;17.77;;;;;;;11.69;91.59;98530.06;4990406;28;20631;-76
2023/09/26 02:07:58;;;;;;;20.52;18.83;;;;;;;11.77;91.48;98525.34;4984201;28;20276;-76
2023/09/26 02:10:25;;;;;;;20.38;18.55;;;;;;;11.83;91.52;98523.72;4989140;28;20206;-77
2023/09/26 02:12:52;;;;;;;20.17;18.48;;;;;;;11.72;91.60;98529.66;4987736;28;20202;-77
2023/09/26 02:15:19;;;;;;;20.20;18.45;;;;;;;11.68;91.94;98521.09;4990321;28;20258;-77
2023/09/26 02:17:47;;;;;;;19.35;17.75;;;;;;;11.68;92.15;98515.66;4989116;28;20206;-76
2023/09/26 02:20:16;;;;;;;19.60;18.00;;;;;;;11.69;92.19;98532.78;4990552;28;20207;-76
2023/09/26 02:22:45;;;;;;;19.02;17.63;;;;;;;11.75;91.71;98526.53;4988667;28;20210;-77
2023/09/26 02:25:13;;;;;;;22.58;20.67;;;;;;;11.48;92.53;98524.66;4982550;28;20317;-76
2023/09/26 02:27:41;;;;;;;22.70;20.60;;;;;;;11.43;92.88;98512.53;4987080;28;20199;-77
2023/09/26 02:30:10;;;;;;;20.25;18.65;;;;;;;11.44;93.34;98525.06;4990039;28;20235;-77
2023/09/26 02:32:37;;;;;;;21.85;20.05;;;;;;;11.31;93.98;98524.13;4989752;28;20310;-76
2023/09/26 02:35:07;;;;;;;21.60;19.75;;;;;;;11.31;93.43;98519.53;4991004;28;20214;-76
2023/09/26 02:37:34;;;;;;;23.02;20.92;;;;;;;11.15;94.04;98518.97;4986519;28;20729;-76
2023/09/26 02:40:05;;;;;;;20.27;18.58;;;;;;;11.06;94.79;98520.94;4981719;28;20238;-76
2023/09/26 02:42:32;;;;;;;23.45;21.45;;;;;;;10.97;95.03;98505.88;4987717;28;20258;-76
2023/09/26 02:44:58;;;;;;;24.00;21.75;;;;;;;11.06;95.04;98510.09;4989251;28;20604;-76
2023/09/26 02:47:25;;;;;;;23.10;20.90;;;;;;;11.06;94.03;98504.69;4989066;28;20394;-76
2023/09/26 02:49:52;;;;;;;22.73;20.73;;;;;;;11.01;94.31;98509.88;4988906;28;20614;-76
2023/09/26 02:52:20;;;;;;;24.23;21.98;;;;;;;11.04;94.36;98504.06;4988953;28;20199;-76
2023/09/26 02:54:47;;;;;;;23.85;21.85;;;;;;;10.89;95.09;98506.00;4980705;28;21690;-76
2023/09/26 02:57:15;;;;;;;24.98;22.73;;;;;;;10.90;94.98;98510.38;4987014;28;20207;-76
2023/09/26 02:59:41;;;;;;;24.40;22.13;;;;;;;11.00;94.89;98505.50;4988988;28;20226;-76
2023/09/26 03:02:08;;;;;;;24.60;22.50;;;;;;;10.86;95.21;98509.94;4989707;28;20571;-76
2023/09/26 03:04:35;;;;;;;24.27;22.17;;;;;;;10.90;95.02;98510.38;4987229;28;20248;-76
2023/09/26 03:07:02;;;;;;;25.80;23.15;;;;;;;10.78;95.30;98510.88;4988576;28;20258;-76
2023/09/26 03:09:30;;;;;;;25.40;23.20;;;;;;;10.77;94.91;98506.50;4987828;28;20282;-76
2023/09/26 03:11:58;;;;;;;24.13;22.02;;;;;;;10.75;94.94;98513.13;4980603;28;20606;-76
2023/09/26 03:14:25;;;;;;;21.77;19.98;;;;;;;10.77;95.57;98511.06;4988074;28;20686;-76
2023/09/26 03:16:52;;;;;;;23.02;20.88;;;;;;;10.81;95.01;98506.94;4988550;28;20269;-76
2023/09/26 03:19:23;;;;;;;22.40;20.67;;;;;;;10.71;95.22;98509.16;4987687;28;20207;-76
2023/09/26 03:21:50;;;;;;;22.85;20.85;;;;;;;10.70;95.39;98507.47;4988589;28;20648;-76
2023/09/26 03:24:17;;;;;;;21.33;19.42;;;;;;;10.72;95.29;98505.41;4988363;28;20198;-76
2023/09/26 03:26:45;;;;;;;22.63;20.70;;;;;;;10.67;95.23;98511.41;4982358;28;20247;-76
2023/09/26 03:29:12;;;;;;;22.67;20.77;;;;;;;10.59;95.60;98508.81;4987867;28;20951;-76
2023/09/26 03:31:40;;;;;;;20.20;18.63;;;;;;;10.70;95.43;98505.59;4986389;28;20231;-76
2023/09/26 03:34:07;;;;;;;23.90;21.73;;;;;;;10.63;95.27;98503.84;4988238;28;20294;-76
2023/09/26 03:36:34;;;;;;;23.55;21.30;;;;;;;10.77;94.62;98506.50;4988004;28;20233;-76
2023/09/26 03:39:01;;;;;;;21.48;19.67;;;;;;;10.78;94.36;98502.75;4987358;28;20214;-76
2023/09/26 03:41:27;;;;;;;23.77;21.60;;;;;;;10.65;94.44;98502.63;4982806;28;20277;-75
2023/09/26 03:43:55;;;;;;;21.25;19.45;;;;;;;10.67;94.49;98505.97;4976826;28;20509;-78
2023/09/26 03:46:22;;;;;;;23.33;21.33;;;;;;;10.65;94.22;98507.19;4984138;28;20257;-76
2023/09/26 03:48:49;;;;;;;23.08;21.17;;;;;;;10.48;94.77;98505.75;4987065;28;20547;-77
2023/09/26 03:51:16;;;;;;;24.63;22.52;;;;;;;10.36;95.10;98511.66;4985320;28;20219;-77
2023/09/26 03:53:43;;;;;;;22.50;20.60;;;;;;;10.38;95.26;98506.91;4984722;28;20555;-78
2023/09/26 03:56:10;;;;;;;20.65;18.88;;;;;;;10.31;95.04;98514.09;4986379;28;20227;-78
2023/09/26 03:58:37;;;;;;;19.08;17.48;;;;;;;10.30;94.68;98507.00;4977636;28;20198;-77
2023/09/26 04:01:10;;;;;;;19.60;17.70;;;;;;;10.18;95.12;98499.50;4979450;28;20612;-78
2023/09/26 04:03:37;;;;;;;16.50;15.20;;;;;;;10.14;95.14;98511.72;4980999;28;20198;-77
2023/09/26 04:06:04;;;;;;;18.27;16.77;;;;;;;10.04;95.74;98510.16;4984611;28;20270;-77
2023/09/26 04:08:31;;;;;;;17.58;16.13;;;;;;;10.21;94.87;98505.41;4986057;28;20702;-77
2023/09/26 04:10:58;;;;;;;19.50;17.80;;;;;;;10.05;95.47;98511.00;4985603;28;20206;-77
2023/09/26 04:13:25;;;;;;;19.58;17.88;;;;;;;10.04;95.60;98510.16;4987537;28;20197;-78
2023/09/26 04:15:53;;;;;;;17.55;16.15;;;;;;;10.08;95.68;98508.75;4986631;28;20211;-78
2023/09/26 04:18:22;;;;;;;16.63;15.23;;;;;;;10.23;94.94;98507.94;4982960;28;20199;-77
2023/09/26 04:20:50;;;;;;;17.92;16.52;;;;;;;10.19;94.75;98503.88;4984406;28;20738;-77
2023/09/26 04:23:17;;;;;;;19.20;17.50;;;;;;;10.08;95.13;98506.03;4985941;28;20692;-79
2023/09/26 04:25:43;;;;;;;21.92;19.98;;;;;;;9.91;95.37;98485.63;4986392;28;20250;-78
2023/09/26 04:28:10;;;;;;;20.48;18.42;;;;;;;10.13;95.18;98499.22;4984930;28;20323;-80
2023/09/26 04:30:39;;;;;;;21.95;20.02;;;;;;;10.13;95.41;98499.22;4984708;28;20264;-77
2023/09/26 04:33:06;;;;;;;21.98;19.95;;;;;;;10.03;95.78;98496.84;4985633;28;20206;-77
2023/09/26 04:35:35;;;;;;;24.17;21.98;;;;;;;10.04;95.80;98491.25;4974685;28;20360;-78
2023/09/26 04:38:02;;;;;;;24.20;21.80;;;;;;;9.94;96.23;98492.53;4976662;28;20273;-78
2023/09/26 04:40:29;;;;;;;26.63;23.80;;;;;;;9.87;96.38;98492.44;4980137;28;20289;-76
2023/09/26 04:43:00;;;;;;;24.63;22.23;;;;;;;9.88;97.20;98488.72;4979486;28;20200;-76
2023/09/26 04:45:30;;;;;;;26.45;23.83;;;;;;;9.90;97.25;98486.66;4976147;28;20237;-77
2023/09/26 04:48:00;;;;;;;21.98;20.08;;;;;;;9.89;97.27;98495.78;4969405;28;20567;-76
2023/09/26 04:50:27;;;;;;;27.15;24.58;;;;;;;10.03;96.24;98497.66;4970476;28;20301;-76
2023/09/26 04:52:56;;;;;;;24.38;22.00;;;;;;;10.01;96.06;98483.50;4980041;28;20651;-76
2023/09/26 04:55:23;;;;;;;26.70;24.10;;;;;;;10.05;96.59;98490.22;4982657;28;20695;-78
2023/09/26 04:57:50;;;;;;;25.75;23.23;;;;;;;9.91;96.61;98493.75;4985319;28;20237;-77
2023/09/26 05:00:18;;;;;;;28.25;25.58;;;;;;;9.81;97.34;98492.34;4983044;28;20960;-77
2023/09/26 05:02:45;;;;;;;27.00;24.20;;;;;;;9.88;97.17;98504.09;4982935;28;20642;-77
2023/09/26 05:05:14;;;;;;;25.70;23.25;;;;;;;9.89;96.69;98503.91;4980974;28;20233;-77
2023/09/26 05:07:43;;;;;;;25.48;23.02;;;;;;;9.83;96.77;98487.59;4975946;28;20208;-75
2023/09/26 05:10:12;;;;;;;26.20;23.55;;;;;;;9.87;96.60;98487.03;4987058;28;20233;-77
2023/09/26 05:12:40;;;;;;;26.35;23.67;;;;;;;9.78;97.19;98491.69;4979846;28;20217;-74
2023/09/26 05:15:12;;;;;;;25.20;22.73;;;;;;;9.86;96.97;98501.56;4977869;28;20218;-78
2023/09/26 05:17:41;;;;;;;24.85;22.30;;;;;;;9.89;97.00;98494.97;4977965;28;20198;-76
2023/09/26 05:20:10;;;;;;;23.15;21.02;;;;;;;9.86;97.17;98498.03;4980691;28;20605;-75
2023/09/26 05:22:37;;;;;;;24.60;22.40;;;;;;;9.81;97.30;98504.00;4986260;28;20253;-88
2023/09/26 05:25:06;;;;;;;25.23;22.67;;;;;;;9.82;97.58;98510.25;4988063;28;20501;-87
2023/09/26 05:27:34;;;;;;;24.15;21.95;;;;;;;9.91;97.58;98509.13;4990711;28;20195;-88
2023/09/26 05:30:01;;;;;;;24.75;22.45;;;;;;;9.82;97.54;98519.19;4989385;28;20197;-86
2023/09/26 05:32:28;;;;;;;23.98;21.75;;;;;;;9.89;97.46;98517.44;4991414;28;20198;-90
2023/09/26 05:34:55;;;;;;;22.80;20.73;;;;;;;9.86;97.27;98523.19;4988711;28;20257;-87
2023/09/26 05:37:22;;;;;;;22.50;20.52;;;;;;;9.93;97.10;98524.16;4990657;28;20202;-87
2023/09/26 05:39:50;;;;;;;19.67;18.08;;;;;;;10.15;96.47;98521.53;4989235;28;20209;-88
2023/09/26 05:42:17;;;;;;;20.50;18.63;;;;;;;10.17;96.46;98520.31;4991472;28;20205;-88
2023/09/26 05:44:45;;;;;;;20.10;18.30;;;;;;;10.39;95.72;98515.84;4990176;28;20261;-88
2023/09/26 05:47:12;;;;;;;16.73;15.40;;;;;;;10.70;93.09;98502.91;4988809;28;21189;-88
2023/09/26 05:49:38;;;;;;;15.18;13.75;;;;;;;11.10;91.62;98506.81;4989476;28;20682;-87
2023/09/26 05:52:05;;;;;;;14.30;13.00;;;;;;;11.46;90.70;98511.31;4987661;28;20211;-87
2023/09/26 05:54:33;;;;;;;14.02;12.68;;;;;;;11.74;89.50;98501.31;4988657;28;20217;-88
2023/09/26 05:56:59;;;;;;;12.25;11.25;;;;;;;11.75;88.41;98499.44;4989246;28;20207;-88
2023/09/26 05:59:26;;;;;;;12.18;11.18;;;;;;;11.75;87.44;98494.84;4990766;28;20253;-88
2023/09/26 06:01:56;;;;;;;11.18;10.32;;;;;;;11.99;86.73;98499.00;4990772;28;20231;-87
2023/09/26 06:04:22;;;;;;;11.00;10.00;;;;;;;12.05;85.64;98500.91;4989870;28;20203;-88
2023/09/26 06:06:50;;;;;;;10.38;9.48;;;;;;;12.19;84.35;98506.41;4989306;28;20226;-87
2023/09/26 06:09:17;;;;;;;9.57;8.77;;;;;;;12.40;83.48;98503.56;4986903;28;20204;-87
2023/09/26 06:11:43;;;;;;;9.38;8.57;;;;;;;12.31;83.15;98499.38;4999772;28;20225;-88
2023/09/26 06:14:10;;;;;;;9.13;8.30;;;;;;;12.50;82.47;98501.31;5004376;28;20195;-87
2023/09/26 06:16:37;;;;;;;8.68;7.80;;;;;;;12.74;81.49;98492.63;4991654;28;20275;-88
2023/09/26 06:19:06;;;;;;;9.95;9.05;;;;;;;12.70;80.49;98499.50;4989040;28;20235;-86
2023/09/26 06:21:32;;;;;;;9.03;8.10;;;;;;;12.89;80.59;98500.63;4992534;28;20198;-87
2023/09/26 06:23:59;;;;;;;9.20;8.40;;;;;;;12.95;80.13;98502.53;4983719;28;20497;-87
2023/09/26 06:26:26;;;;;;;8.20;7.60;;;;;;;13.36;78.41;98506.97;4981205;28;20580;-87
2023/09/26 06:28:53;;;;;;;8.20;7.60;;;;;;;13.08;78.61;98513.38;4985768;28;20671;-88
2023/09/26 06:31:20;;;;;;;9.03;8.13;;;;;;;12.90;79.54;98512.31;4988301;28;21146;-88
2023/09/26 06:33:47;;;;;;;8.73;8.00;;;;;;;12.95;79.57;98513.38;4981973;28;20470;-87
2023/09/26 06:36:18;;;;;;;8.90;8.30;;;;;;;13.35;78.41;98513.44;4987750;28;21967;-89
2023/09/26 06:38:45;;;;;;;8.67;7.87;;;;;;;13.69;76.99;98515.97;4988628;28;20529;-87
2023/09/26 06:41:12;;;;;;;8.80;8.07;;;;;;;13.71;76.97;98530.19;4989099;28;20964;-88
2023/09/26 06:43:39;;;;;;;8.67;7.90;;;;;;;13.73;76.51;98529.97;4988793;28;20453;-88
2023/09/26 06:46:08;;;;;;;8.00;7.00;;;;;;;13.91;76.50;98527.47;4988313;28;20487;-89
2023/09/26 06:48:37;;;;;;;8.13;7.50;;;;;;;14.01;75.43;98525.13;4985873;28;20468;-87
2023/09/26 06:51:04;;;;;;;8.27;7.57;;;;;;;14.09;74.75;98526.78;4986814;28;20463;-88
2023/09/26 06:53:32;;;;;;;7.70;7.00;;;;;;;14.36;74.04;98527.56;4987352;28;20547;-88
2023/09/26 06:56:02;;;;;;;8.10;7.30;;;;;;;14.53;73.04;98517.91;4987617;28;20586;-88
2023/09/26 06:58:29;;;;;;;7.90;7.10;;;;;;;15.17;70.67;98521.56;4988484;28;20465;-88
2023/09/26 07:00:56;;;;;;;6.13;5.70;;;;;;;15.51;69.24;98521.09;4988822;28;20456;-89
2023/09/26 07:03:22;;;;;;;6.20;5.73;;;;;;;16.02;66.13;98506.38;4987284;28;21203;-88
2023/09/26 07:05:49;;;;;;;6.43;5.70;;;;;;;16.62;64.68;98512.84;4985544;28;21139;-89
2023/09/26 07:08:16;;;;;;;5.93;5.43;;;;;;;17.10;63.11;98503.84;4985857;28;20553;-86
2023/09/26 07:10:45;;;;;;;5.83;5.43;;;;;;;17.76;60.57;98509.13;4983650;28;20465;-89
2023/09/26 07:13:13;;;;;;;8.63;7.03;;;;;;;17.88;59.84;98505.53;4986715;28;20548;-88
2023/09/26 07:15:40;;;;;;;7.60;7.00;;;;;;;17.87;60.22;98510.19;4987378;28;20664;-88
2023/09/26 07:18:09;;;;;;;7.47;6.87;;;;;;;17.08;62.04;98504.06;4986428;28;20493;-87
2023/09/26 07:20:38;;;;;;;7.40;6.60;;;;;;;16.78;63.39;98506.78;4986694;28;20470;-87
2023/09/26 07:23:05;;;;;;;6.27;5.87;;;;;;;16.92;63.15;98512.06;4988076;28;20458;-87
2023/09/26 07:25:31;;;;;;;7.53;6.83;;;;;;;16.68;64.32;98514.69;4988066;28;22062;-88
2023/09/26 07:27:59;;;;;;;5.90;5.50;;;;;;;17.45;62.53;98504.78;4985382;28;20933;-87
2023/09/26 07:30:26;;;;;;;7.33;6.80;;;;;;;17.58;62.35;98502.88;4986000;28;20561;-88
2023/09/26 07:32:53;;;;;;;6.17;5.70;;;;;;;18.24;59.58;98509.94;4979915;28;20853;-73
2023/09/26 07:35:19;;;;;;;6.90;6.30;;;;;;;18.21;59.84;98504.94;4982976;28;20478;-74
2023/09/26 07:37:46;;;;;;;6.90;6.30;;;;;;;18.64;58.17;98499.06;4985646;28;20464;-79
2023/09/26 07:40:13;;;;;;;7.00;6.40;;;;;;;18.73;57.30;98503.94;4985088;28;20454;-76
2023/09/26 07:42:40;;;;;;;7.93;7.23;;;;;;;18.28;58.65;98508.41;4982167;28;20470;-76
2023/09/26 07:45:10;;;;;;;7.37;6.77;;;;;;;18.74;58.26;98500.13;4979607;28;20604;-77
2023/09/26 07:47:37;;;;;;;7.43;6.83;;;;;;;18.68;57.35;98512.03;4965619;28;20500;-77
2023/09/26 07:50:05;;;;;;;6.33;5.80;;;;;;;19.42;55.57;98507.44;4977939;28;20470;-77
2023/09/26 07:52:32;;;;;;;6.90;6.20;;;;;;;19.20;56.45;98508.38;4979745;28;20481;-77
2023/09/26 07:54:59;;;;;;;7.80;7.10;;;;;;;19.59;55.24;98503.91;4984232;28;20514;-76
2023/09/26 07:57:25;;;;;;;6.73;6.10;;;;;;;19.21;56.26;98505.38;4985093;28;20461;-77
2023/09/26 07:59:52;;;;;;;6.63;6.10;;;;;;;19.16;55.62;98505.31;4980266;28;20554;-77
2023/09/26 08:02:20;;;;;;;7.67;6.70;;;;;;;19.26;56.06;98501.91;4979935;28;20575;-77
2023/09/26 08:04:47;;;;;;;7.17;6.60;;;;;;;19.46;55.69;98505.03;4986320;28;21510;-77
2023/09/26 08:07:14;;;;;;;5.57;5.17;;;;;;;19.93;54.90;98505.56;4982001;28;21012;-77
2023/09/26 08:09:41;;;;;;;5.97;5.47;;;;;;;19.96;53.91;98506.97;4979199;28;20468;-77
2023/09/26 08:12:07;;;;;;;6.80;6.30;;;;;;;20.36;53.33;98512.25;4972526;28;20488;-77
2023/09/26 08:14:34;;;;;;;6.90;6.33;;;;;;;20.61;52.69;98509.88;4970834;28;20484;-77
2023/09/26 08:17:01;;;;;;;6.10;5.60;;;;;;;20.53;53.46;98510.31;4976505;28;21088;-77
2023/09/26 08:19:30;;;;;;;5.43;5.00;;;;;;;20.75;52.36;98505.66;4976829;28;20462;-77
2023/09/26 08:21:56;;;;;;;6.00;5.50;;;;;;;21.00;51.63;98496.03;4969407;28;20480;-77
2023/09/26 08:24:23;;;;;;;7.07;6.50;;;;;;;22.23;48.27;98504.31;4974978;28;20551;-77
2023/09/26 08:26:50;;;;;;;6.83;5.73;;;;;;;22.18;48.91;98507.06;4975686;28;20490;-77
2023/09/26 08:29:17;;;;;;;5.80;5.33;;;;;;;22.27;48.31;98505.47;4981131;28;20457;-77
2023/09/26 08:31:44;;;;;;;6.90;6.20;;;;;;;23.13;46.10;98503.94;4981017;28;20485;-78
2023/09/26 08:34:11;;;;;;;6.03;5.63;;;;;;;23.83;44.75;98500.75;4983091;28;20997;-78
2023/09/26 08:36:39;;;;;;;5.70;5.20;;;;;;;23.50;45.72;98494.63;4983664;28;20520;-77
2023/09/26 08:39:06;;;;;;;6.10;5.60;;;;;;;23.30;45.88;98503.72;4982809;28;21255;-77
2023/09/26 08:41:33;;;;;;;6.83;6.23;;;;;;;23.36;44.91;98504.56;4986409;28;20459;-77
2023/09/26 08:44:00;;;;;;;5.30;4.87;;;;;;;23.68;45.67;98498.81;4985632;28;20492;-78
2023/09/26 08:46:27;;;;;;;6.17;5.67;;;;;;;24.56;43.20;98493.75;4984881;28;20516;-78
2023/09/26 08:48:56;;;;;;;6.70;6.10;;;;;;;24.55;42.96;98496.78;4973301;28;20453;-78
2023/09/26 08:51:23;;;;;;;6.80;6.20;;;;;;;25.16;41.17;98491.84;4984028;28;20477;-79
2023/09/26 08:53:51;;;;;;;7.17;6.50;;;;;;;25.40;40.66;98494.75;4982012;28;20509;-78
2023/09/26 08:56:20;;;;;;;6.30;5.73;;;;;;;25.57;40.63;98488.81;4979477;28;21039;-77
2023/09/26 08:58:49;;;;;;;5.47;5.07;;;;;;;26.06;39.88;98491.47;4978306;28;21807;-78
2023/09/26 09:01:16;;;;;;;6.77;6.27;;;;;;;26.64;37.99;98497.03;4979199;28;20457;-78
2023/09/26 09:03:43;;;;;;;6.70;6.20;;;;;;;26.40;38.17;98500.59;4975487;28;20458;-77
2023/09/26 09:06:10;;;;;;;6.23;5.73;;;;;;;26.64;38.11;98494.25;4983554;28;20494;-77
2023/09/26 09:08:37;;;;;;;6.77;6.30;;;;;;;26.72;37.79;98491.63;4974563;28;20929;-77
2023/09/26 09:11:05;;;;;;;6.60;6.10;;;;;;;25.02;40.87;98491.63;4988060;28;20482;-77
2023/09/26 09:13:33;;;;;;;7.17;6.57;;;;;;;25.92;39.41;98488.56;4973443;28;20472;-77
2023/09/26 09:16:10;;;;;;;6.60;6.10;;;;;;;25.75;39.68;98488.13;4977016;28;20466;-77
2023/09/26 09:18:37;;;;;;;7.53;6.77;;;;;;;26.49;38.88;98484.13;4979622;28;20467;-77
2023/09/26 09:21:21;;;;;;;6.90;6.40;;;;;;;26.38;38.92;98485.34;4978558;28;20465;-77
2023/09/26 09:23:48;;;;;;;7.10;6.57;;;;;;;26.86;38.14;98479.81;4983212;28;20572;-77
2023/09/26 09:26:17;;;;;;;6.20;5.80;;;;;;;26.99;37.00;98479.91;4979790;28;20465;-77
2023/09/26 09:28:44;;;;;;;6.10;5.70;;;;;;;26.95;37.35;98478.03;4975551;28;20981;-77
2023/09/26 09:31:13;;;;;;;5.23;4.83;;;;;;;27.31;37.38;98476.41;4972902;28;20454;-76
2023/09/26 09:33:44;;;;;;;7.00;6.40;;;;;;;26.69;37.82;98475.53;4975882;28;20560;-76
2023/09/26 09:36:11;;;;;;;6.07;5.57;;;;;;;26.29;38.89;98476.00;4984409;28;20492;-76
2023/09/26 09:38:38;;;;;;;6.17;5.67;;;;;;;25.55;40.51;98468.88;4975128;28;20462;-76
2023/09/26 09:41:05;;;;;;;6.80;6.30;;;;;;;25.38;41.29;98469.25;4983589;28;22243;-79
2023/09/26 09:43:33;;;;;;;6.67;6.13;;;;;;;25.45;41.55;98472.53;4986838;28;20460;-78
2023/09/26 09:46:06;;;;;;;6.43;5.97;;;;;;;25.74;40.50;98475.38;4988948;28;20450;-79
2023/09/26 09:48:39;;;;;;;7.17;6.50;;;;;;;27.00;38.06;98476.00;4983824;28;20492;-76
2023/09/26 09:51:09;;;;;;;6.93;6.33;;;;;;;26.81;38.50;98469.56;4977770;28;20501;-76
2023/09/26 09:53:36;;;;;;;7.80;6.97;;;;;;;26.32;39.29;98469.88;4973829;28;20484;-75
2023/09/26 09:56:07;;;;;;;7.80;7.20;;;;;;;26.47;38.38;98466.94;4976182;28;21258;-76
2023/09/26 09:58:39;;;;;;;7.70;7.10;;;;;;;26.49;38.19;98470.25;4981626;28;20977;-76
2023/09/26 10:01:06;;;;;;;6.27;5.70;;;;;;;26.13;39.69;98471.72;4978736;28;20673;-76
2023/09/26 10:03:34;;;;;;;7.57;6.70;;;;;;;26.23;39.45;98466.06;4985739;28;20454;-75
2023/09/26 10:06:03;;;;;;;7.93;6.50;;;;;;;26.47;39.13;98461.38;4987938;28;20450;-76
2023/09/26 10:08:31;;;;;;;6.13;5.47;;;;;;;26.78;38.45;98462.66;4975652;28;20493;-75
2023/09/26 10:10:59;;;;;;;6.73;6.00;;;;;;;27.25;37.24;98451.78;4979614;28;20457;-76
2023/09/26 10:13:25;;;;;;;6.27;5.87;;;;;;;27.13;36.81;98455.00;4985822;28;20461;-76
2023/09/26 10:16:05;;;;;;;5.80;5.10;;;;;;;26.91;36.77;98451.94;4978185;28;21073;-76
2023/09/26 10:18:33;;;;;;;6.43;5.90;;;;;;;27.04;37.42;98448.44;4976519;28;20461;-76
2023/09/26 10:21:00;;;;;;;5.87;5.43;;;;;;;26.95;37.61;98453.00;4985826;28;20457;-77
2023/09/26 10:23:27;;;;;;;6.97;4.87;;;;;;;27.62;36.63;98443.41;4987125;28;20485;-77
2023/09/26 10:25:54;;;;;;;5.00;4.60;;;;;;;28.21;35.55;98449.41;4987121;28;21164;-77
2023/09/26 10:28:21;;;;;;;4.00;3.70;;;;;;;28.22;34.83;98440.72;4982891;28;20529;-77
2023/09/26 10:30:55;;;;;;;4.60;4.30;;;;;;;28.15;34.40;98439.44;4986617;28;20718;-75
2023/09/26 10:33:23;;;;;;;5.27;4.90;;;;;;;27.77;36.38;98428.44;4987700;28;20931;-77
2023/09/26 10:35:50;;;;;;;5.07;4.73;;;;;;;28.06;35.25;98437.38;4988141;28;20442;-77
2023/09/26 10:38:19;;;;;;;4.50;4.10;;;;;;;27.40;36.78;98427.34;4987306;28;21061;-78
2023/09/26 10:40:47;;;;;;;4.13;3.43;;;;;;;27.61;35.45;98427.06;4979979;28;20473;-77
2023/09/26 10:43:15;;;;;;;5.27;4.87;;;;;;;27.28;36.20;98438.09;4983549;28;20524;-77
2023/09/26 10:45:45;;;;;;;4.00;3.73;;;;;;;27.09;36.24;98423.38;4986010;28;20450;-76
2023/09/26 10:48:18;;;;;;;4.00;3.70;;;;;;;27.31;36.11;98426.34;4980856;28;20620;-77
2023/09/26 10:50:46;;;;;;;4.07;3.77;;;;;;;27.64;34.93;98418.91;4966842;28;21011;-77
2023/09/26 10:53:13;;;;;;;3.67;3.37;;;;;;;28.03;35.05;98417.66;4971914;28;20469;-77
2023/09/26 10:55:41;;;;;;;4.10;3.80;;;;;;;28.58;33.80;98418.56;4981322;28;20450;-77
2023/09/26 10:58:07;;;;;;;4.00;3.10;;;;;;;28.03;35.37;98421.28;4986646;28;20453;-77
2023/09/26 11:00:34;;;;;;;4.03;3.73;;;;;;;28.89;33.16;98412.38;4987661;28;20548;-77
2023/09/26 11:03:01;;;;;;;4.20;3.90;;;;;;;29.17;32.42;98408.38;4981887;28;20486;-77
2023/09/26 11:05:30;;;;;;;3.33;3.10;;;;;;;29.04;32.28;98417.59;4981747;28;20481;-77
2023/09/26 11:07:58;;;;;;;2.73;2.53;;;;;;;29.53;31.60;98408.38;4974155;28;20486;-77
2023/09/26 11:10:25;;;;;;;3.60;2.70;;;;;;;29.58;32.08;98412.97;4977528;28;20449;-77
2023/09/26 11:12:52;;;;;;;3.30;3.00;;;;;;;29.45;31.50;98406.34;4984570;28;20489;-77
2023/09/26 11:15:19;;;;;;;4.47;3.53;;;;;;;29.10;31.71;98407.97;4987919;28;20484;-77
2023/09/26 11:17:48;;;;;;;3.57;3.20;;;;;;;29.61;31.57;98409.56;4981445;28;20469;-77
2023/09/26 11:20:15;;;;;;;4.43;2.87;;;;;;;29.24;31.84;98402.38;4984962;28;20457;-77
2023/09/26 11:22:46;;;;;;;4.80;3.40;;;;;;;29.32;32.46;98399.63;4988023;28;20461;-77
2023/09/26 11:25:15;;;;;;;3.30;3.00;;;;;;;28.99;32.47;98400.97;4980350;28;20497;-78
2023/09/26 11:27:43;;;;;;;3.33;3.13;;;;;;;28.62;32.53;98402.03;4985330;28;20552;-77